createdAt,value
2018-08-24T00:01:17.828Z,2.7
2018-08-24T00:04:17.775Z,2.7
2018-08-24T00:07:18.340Z,2.8
2018-08-24T00:10:17.794Z,2.7
2018-08-24T00:13:18.003Z,2.7
2018-08-24T00:16:17.725Z,2.9
2018-08-24T00:19:17.892Z,2.6
2018-08-24T00:25:17.814Z,3
2018-08-24T00:28:17.718Z,2.8
2018-08-24T00:31:17.973Z,3.1
2018-08-24T00:34:18.019Z,2.7
2018-08-24T00:37:17.840Z,2.8
2018-08-24T00:40:17.702Z,3
2018-08-24T00:43:17.929Z,2.9
2018-08-24T00:46:17.942Z,3.9
2018-08-24T00:49:18.259Z,2.7
2018-08-24T00:55:17.976Z,3.2
2018-08-24T00:58:18.149Z,3
2018-08-24T01:01:17.824Z,2.7
2018-08-24T01:04:17.908Z,2.8
2018-08-24T01:07:17.648Z,2.6
2018-08-24T01:10:17.815Z,2.5
2018-08-24T01:13:17.854Z,2.6
2018-08-24T01:16:17.787Z,2.7
2018-08-24T01:19:17.838Z,2.6
2018-08-24T01:25:17.975Z,2.5
2018-08-24T01:28:18.198Z,2.8
2018-08-24T01:31:17.791Z,3
2018-08-24T01:34:18.122Z,2.5
2018-08-24T01:37:17.715Z,2.6
2018-08-24T01:40:17.793Z,2.5
2018-08-24T01:43:17.891Z,2.6
2018-08-24T01:46:18.003Z,2.6
2018-08-24T01:49:17.923Z,2.5
2018-08-24T01:55:17.879Z,2.8
2018-08-24T01:58:17.921Z,2.7
2018-08-24T02:01:18.228Z,2.8
2018-08-24T02:04:17.811Z,2.6
2018-08-24T02:07:18.091Z,2.8
2018-08-24T02:10:17.723Z,2.7
2018-08-24T02:13:18.138Z,2.7
2018-08-24T02:16:17.779Z,2.7
2018-08-24T02:19:17.783Z,2.6
2018-08-24T02:25:17.794Z,2.7
2018-08-24T02:28:17.896Z,3
2018-08-24T02:31:19.188Z,2.7
2018-08-24T02:34:18.185Z,2.7
2018-08-24T02:37:17.941Z,2.5
2018-08-24T02:40:17.871Z,2.5
2018-08-24T02:46:18.009Z,2.7
2018-08-24T02:49:17.862Z,2.7
2018-08-24T02:52:17.856Z,2.5
2018-08-24T02:55:17.678Z,2.4
2018-08-24T02:58:17.815Z,2.6
2018-08-24T03:01:17.776Z,2.5
2018-08-24T03:04:17.869Z,2.7
2018-08-24T03:07:17.919Z,2.7
2018-08-24T03:10:17.745Z,2.5
2018-08-24T03:16:18.187Z,2.6
2018-08-24T03:19:17.913Z,2.5
2018-08-24T03:22:17.827Z,2.5
2018-08-24T03:25:17.916Z,2.4
2018-08-24T03:28:17.696Z,2.5
2018-08-24T03:31:17.764Z,2.6
2018-08-24T03:34:17.778Z,2.6
2018-08-24T03:37:17.661Z,2.6
2018-08-24T03:40:17.863Z,2.6
2018-08-24T03:46:17.742Z,2.5
2018-08-24T03:49:17.708Z,2.7
2018-08-24T03:52:17.720Z,2.5
2018-08-24T03:55:17.933Z,2.4
2018-08-24T03:58:17.771Z,2.6
2018-08-24T04:01:17.876Z,2.5
2018-08-24T04:04:17.815Z,2.6
2018-08-24T04:07:17.868Z,2.5
2018-08-24T04:10:17.803Z,2.6
2018-08-24T04:16:17.788Z,2.5
2018-08-24T04:19:18.429Z,2.6
2018-08-24T04:22:17.786Z,2.5
2018-08-24T04:25:17.587Z,2.5
2018-08-24T04:28:17.836Z,2.5
2018-08-24T04:31:17.922Z,2.5
2018-08-24T04:34:17.849Z,2.6
2018-08-24T04:37:17.679Z,2.5
2018-08-24T04:40:19.100Z,2.7
2018-08-24T04:46:17.753Z,2.6
2018-08-24T04:49:17.763Z,2.5
2018-08-24T04:52:17.912Z,2.5
2018-08-24T04:55:17.744Z,2.5
2018-08-24T04:58:18.671Z,2.7
2018-08-24T05:01:17.669Z,2.5
2018-08-24T05:04:17.826Z,2.6
2018-08-24T05:07:17.876Z,2.5
2018-08-24T05:10:17.949Z,2.3
2018-08-24T05:16:17.893Z,2.7
2018-08-24T05:19:17.879Z,2.5
2018-08-24T05:22:17.932Z,2.6
2018-08-24T05:25:17.855Z,2.5
2018-08-24T05:28:17.939Z,2.5
2018-08-24T05:31:17.890Z,2.5
2018-08-24T05:34:18.041Z,2.4
2018-08-24T05:37:18.050Z,2.5
2018-08-24T05:40:17.718Z,2.4
2018-08-24T05:46:17.675Z,2.4
2018-08-24T05:49:17.852Z,2.2
2018-08-24T05:52:17.699Z,2.3
2018-08-24T05:55:17.970Z,2.9
2018-08-24T05:58:17.718Z,2.5
2018-08-24T06:01:17.916Z,2.4
2018-08-24T06:04:17.672Z,2.5
2018-08-24T06:07:18.048Z,2.5
2018-08-24T06:10:17.696Z,2.4
2018-08-24T06:16:18.198Z,2.5
2018-08-24T06:19:17.905Z,2.4
2018-08-24T06:22:17.871Z,2.5
2018-08-24T06:25:17.891Z,2.2
2018-08-24T06:28:17.777Z,2.4
2018-08-24T06:31:17.876Z,2.4
2018-08-24T06:34:17.915Z,2.6
2018-08-24T06:37:17.823Z,2.5
2018-08-24T06:40:18.338Z,2.3
2018-08-24T06:46:17.762Z,2.8
2018-08-24T06:49:17.799Z,2.5
2018-08-24T06:52:17.676Z,2.5
2018-08-24T06:55:17.685Z,2.4
2018-08-24T06:58:17.721Z,2.4
2018-08-24T07:01:18.080Z,2.4
2018-08-24T07:04:17.957Z,2.4
2018-08-24T07:07:17.661Z,2.5
2018-08-24T07:10:17.878Z,2.4
2018-08-24T07:16:17.822Z,2.4
2018-08-24T07:19:17.872Z,2.3
2018-08-24T07:22:17.660Z,2.6
2018-08-24T07:25:18.929Z,2.4
2018-08-24T07:28:18.122Z,2.5
2018-08-24T07:31:18.097Z,2.4
2018-08-24T07:34:17.830Z,2.3
2018-08-24T07:37:17.853Z,2.5
2018-08-24T07:40:17.725Z,7.6
2018-08-24T07:46:17.878Z,5.1
2018-08-24T07:49:17.802Z,2.6
2018-08-24T07:52:18.010Z,4.9
2018-08-24T07:55:17.801Z,8.1
2018-08-24T07:58:17.605Z,4.5
2018-08-24T08:01:17.863Z,3.8
2018-08-24T08:04:17.802Z,5
2018-08-24T08:07:17.764Z,2.7
2018-08-24T08:10:17.820Z,3.7
2018-08-24T08:16:17.645Z,4.3
2018-08-24T08:19:17.699Z,3.3
2018-08-24T08:22:17.700Z,2.9
2018-08-24T08:25:17.629Z,2.4
2018-08-24T08:28:17.884Z,2.4
2018-08-24T08:31:17.891Z,2.4
2018-08-24T08:34:17.982Z,2.4
2018-08-24T08:37:17.890Z,3.8
2018-08-24T08:40:17.983Z,2.3
2018-08-24T08:46:17.680Z,2.6
2018-08-24T08:49:17.953Z,2.5
2018-08-24T08:52:17.832Z,2.4
2018-08-24T08:55:18.038Z,2.7
2018-08-24T08:58:17.845Z,2.4
2018-08-24T09:01:17.787Z,2.3
2018-08-24T09:04:17.689Z,2.4
2018-08-24T09:07:17.866Z,2.8
2018-08-24T09:10:17.795Z,2.6
2018-08-24T09:16:17.824Z,3.4
2018-08-24T09:19:17.892Z,2.5
2018-08-24T09:22:17.939Z,2.4
2018-08-24T09:25:18.211Z,2.4
2018-08-24T09:28:17.719Z,2.4
2018-08-24T09:31:17.736Z,2.5
2018-08-24T09:34:17.733Z,2.5
2018-08-24T09:37:17.558Z,2.2
2018-08-24T09:40:17.853Z,2.4
2018-08-24T09:46:17.808Z,2.6
2018-08-24T09:49:17.860Z,2.3
2018-08-24T09:52:18.220Z,2.5
2018-08-24T09:55:17.970Z,2.7
2018-08-24T09:58:17.679Z,2.5
2018-08-24T10:01:17.884Z,2.7
2018-08-24T10:04:17.967Z,2.5
2018-08-24T10:07:17.982Z,3.1
2018-08-24T10:10:17.600Z,2.8
2018-08-24T10:16:17.753Z,3
2018-08-24T10:19:17.992Z,2.8
2018-08-24T10:22:17.720Z,2.7
2018-08-24T10:25:18.041Z,2.5
2018-08-24T10:28:17.906Z,11.7
2018-08-24T10:31:17.897Z,11.6
2018-08-24T10:34:17.855Z,14.9
2018-08-24T10:37:17.885Z,12.5
2018-08-24T10:40:17.953Z,12.8
2018-08-24T10:46:18.422Z,11.5
2018-08-24T10:49:19.080Z,11.2
2018-08-24T10:52:17.713Z,11.8
2018-08-24T10:55:17.693Z,12.7
2018-08-24T10:58:17.712Z,11.9
2018-08-24T11:01:17.667Z,10.9
2018-08-24T11:04:17.625Z,11.1
2018-08-24T11:07:18.849Z,10.9
2018-08-24T11:10:17.813Z,10.9
2018-08-24T11:16:17.813Z,10.6
2018-08-24T11:19:17.904Z,10.2
2018-08-24T11:22:18.071Z,9.9
2018-08-24T11:25:18.098Z,9.8
2018-08-24T11:28:17.840Z,10.9
2018-08-24T11:31:17.808Z,10.3
2018-08-24T11:34:18.008Z,10.1
2018-08-24T11:37:17.845Z,9.6
2018-08-24T11:40:17.509Z,10
2018-08-24T11:46:17.753Z,9.5
2018-08-24T11:49:17.737Z,9.3
2018-08-24T11:52:17.889Z,9.7
2018-08-24T11:55:18.077Z,9.6
2018-08-24T11:58:17.661Z,9.5
2018-08-24T12:01:17.930Z,9.8
2018-08-24T12:04:17.810Z,9.4
2018-08-24T12:07:17.971Z,9.7
2018-08-24T12:10:17.862Z,9.1
2018-08-24T12:16:17.789Z,9.2
2018-08-24T12:19:17.635Z,9.6
2018-08-24T12:22:17.669Z,9.9
2018-08-24T12:25:17.577Z,9.8
2018-08-24T12:28:17.825Z,9.5
2018-08-24T12:31:18.158Z,9.3
2018-08-24T12:37:17.848Z,9.1
2018-08-24T12:40:17.925Z,9.1
2018-08-24T12:43:17.904Z,8.8
2018-08-24T12:46:17.648Z,8.6
2018-08-24T12:49:18.627Z,9.1
2018-08-24T12:52:17.652Z,8.5
2018-08-24T12:55:17.812Z,9.1
2018-08-24T12:58:17.800Z,8.5
2018-08-24T13:01:17.831Z,8.5
2018-08-24T13:07:17.682Z,8.9
2018-08-24T13:10:18.199Z,8.4
2018-08-24T13:13:17.751Z,8.8
2018-08-24T13:16:17.900Z,8.5
2018-08-24T13:19:17.897Z,9
2018-08-24T13:22:17.948Z,8.8
2018-08-24T13:25:18.021Z,8.7
2018-08-24T13:28:18.035Z,8.6
2018-08-24T13:31:17.652Z,8.3
2018-08-24T13:37:17.848Z,9.4
2018-08-24T13:40:17.685Z,8.8
2018-08-24T13:43:17.672Z,8.6
2018-08-24T13:46:17.638Z,11.5
2018-08-24T13:49:17.565Z,11.2
2018-08-24T13:52:17.535Z,9.6
2018-08-24T13:55:17.756Z,8.4
2018-08-24T13:58:17.760Z,7.6
2018-08-24T14:01:18.035Z,7.2
2018-08-24T14:07:17.714Z,7.7
2018-08-24T14:10:17.581Z,7.9
2018-08-24T14:13:18.059Z,9.3
2018-08-24T14:16:17.547Z,8.1
2018-08-24T14:19:17.974Z,7.4
2018-08-24T14:22:17.686Z,7.2
2018-08-24T14:25:17.743Z,7.3
2018-08-24T14:28:17.864Z,7.6
2018-08-24T14:31:17.858Z,7.8
2018-08-24T14:37:17.986Z,7.6
2018-08-24T14:40:18.058Z,7.3
2018-08-24T14:43:17.556Z,7.2
2018-08-24T14:46:17.720Z,7.1
2018-08-24T14:49:17.793Z,7.3
2018-08-24T14:52:17.968Z,7.3
2018-08-24T14:55:17.684Z,6.6
2018-08-24T14:58:17.906Z,6.9
2018-08-24T15:01:17.858Z,7.4
2018-08-24T15:07:17.803Z,7.5
2018-08-24T15:10:18.029Z,8
2018-08-24T15:13:17.607Z,6.8
2018-08-24T15:16:17.776Z,6.7
2018-08-24T15:19:17.896Z,7.3
2018-08-24T15:22:17.877Z,7.6
2018-08-24T15:25:17.754Z,6.6
2018-08-24T15:28:17.803Z,7.1
2018-08-24T15:31:17.866Z,6.6
2018-08-24T15:37:17.791Z,6.8
2018-08-24T15:40:17.941Z,6.7
2018-08-24T15:43:17.540Z,6.7
2018-08-24T15:46:18.180Z,6.8
2018-08-24T15:49:17.748Z,6.7
2018-08-24T15:52:17.775Z,6.6
2018-08-24T15:55:17.858Z,6.7
2018-08-24T15:58:17.729Z,6.9
2018-08-24T16:01:18.084Z,6.6
2018-08-24T16:07:17.771Z,6.5
2018-08-24T16:10:17.663Z,6.5
2018-08-24T16:13:18.312Z,6.9
2018-08-24T16:16:18.300Z,6.6
2018-08-24T16:19:17.626Z,6.3
2018-08-24T16:22:17.676Z,6.7
2018-08-24T16:25:18.410Z,6.6
2018-08-24T16:28:17.771Z,6.5
2018-08-24T16:31:17.676Z,6.4
2018-08-24T16:37:17.592Z,6
2018-08-24T16:40:17.843Z,6.5
2018-08-24T16:43:17.564Z,6.1
2018-08-24T16:46:18.004Z,6.6
2018-08-24T16:49:17.694Z,7.1
2018-08-24T16:52:18.468Z,6.3
2018-08-24T16:55:17.559Z,6.1
2018-08-24T16:58:17.633Z,6.2
2018-08-24T17:01:17.818Z,6.4
2018-08-24T17:07:17.683Z,6.8
2018-08-24T17:10:17.686Z,6.1
2018-08-24T17:13:17.615Z,6.3
2018-08-24T17:16:17.526Z,6.1
2018-08-24T17:19:17.514Z,6.3
2018-08-24T17:22:17.575Z,6.5
2018-08-24T17:25:17.667Z,6.1
2018-08-24T17:28:18.010Z,7
2018-08-24T17:31:17.455Z,6.1
2018-08-24T17:37:17.826Z,6.1
2018-08-24T17:40:17.932Z,6.1
2018-08-24T17:43:17.774Z,5.9
2018-08-24T17:46:17.528Z,6.4
2018-08-24T17:49:17.657Z,6.2
2018-08-24T17:52:17.694Z,6.2
2018-08-24T17:55:17.939Z,6
2018-08-24T17:58:19.044Z,6.1
2018-08-24T18:01:17.557Z,6.1
2018-08-24T18:07:18.176Z,5.9
2018-08-24T18:10:17.739Z,6
2018-08-24T18:13:17.437Z,5.7
2018-08-24T18:16:17.975Z,6
2018-08-24T18:19:17.682Z,9.3
2018-08-24T18:22:17.918Z,7.8
2018-08-24T18:25:17.875Z,6.6
2018-08-24T18:28:17.780Z,6.7
2018-08-24T18:31:17.844Z,6.1
2018-08-24T18:37:17.994Z,6.6
2018-08-24T18:40:17.692Z,7.4
2018-08-24T18:43:17.823Z,5.5
2018-08-24T18:46:17.593Z,7.8
2018-08-24T18:49:17.555Z,6
2018-08-24T18:52:17.639Z,5.3
2018-08-24T18:55:17.506Z,5.9
2018-08-24T18:58:17.757Z,6.1
2018-08-24T19:01:17.679Z,5.4
2018-08-24T19:07:17.657Z,5.5
2018-08-24T19:10:17.703Z,5.6
2018-08-24T19:13:17.861Z,5.4
2018-08-24T19:16:17.649Z,5.7
2018-08-24T19:19:17.535Z,5.5
2018-08-24T19:22:17.894Z,5.3
2018-08-24T19:28:17.662Z,7.4
2018-08-24T19:31:17.899Z,6.6
2018-08-24T19:34:17.592Z,6.2
2018-08-24T19:37:17.910Z,6.8
2018-08-24T19:40:17.559Z,5.5
2018-08-24T19:43:17.795Z,5.7
2018-08-24T19:46:17.960Z,6
2018-08-24T19:49:18.324Z,5.1
2018-08-24T19:52:17.691Z,6.2
2018-08-24T19:58:18.128Z,7.1
2018-08-24T20:01:17.746Z,5.3
2018-08-24T20:04:17.802Z,6.7
2018-08-24T20:07:17.687Z,5.6
2018-08-24T20:10:17.720Z,6.7
2018-08-24T20:13:17.945Z,8
2018-08-24T20:16:17.529Z,6.2
2018-08-24T20:19:17.801Z,5.3
2018-08-24T20:22:17.522Z,6.9
2018-08-24T20:28:17.753Z,5.8
2018-08-24T20:31:17.793Z,6.1
2018-08-24T20:34:17.719Z,6.4
2018-08-24T20:37:17.676Z,4.8
2018-08-24T20:40:17.519Z,5.5
2018-08-24T20:43:17.822Z,7
2018-08-24T20:49:17.863Z,6.4
2018-08-24T20:52:17.650Z,5.6
2018-08-24T20:55:19.396Z,5.3
2018-08-24T20:58:17.660Z,5.3
2018-08-24T21:01:17.918Z,4.9
2018-08-24T21:04:19.325Z,4.9
2018-08-24T21:10:17.780Z,4.9
2018-08-24T21:13:17.666Z,4.9
2018-08-24T21:16:17.708Z,5.2
2018-08-24T21:19:17.664Z,4.6
2018-08-24T21:22:17.712Z,4.7
2018-08-24T21:25:17.870Z,4.8
2018-08-24T21:28:17.698Z,4.3
2018-08-24T21:31:17.660Z,4.7
2018-08-24T21:34:17.585Z,5.3
2018-08-24T21:40:17.660Z,5.6
2018-08-24T21:43:17.771Z,4.6
2018-08-24T21:46:18.529Z,5
2018-08-24T21:49:17.549Z,4.5
2018-08-24T21:52:17.721Z,4.8
2018-08-24T21:55:17.677Z,5.2
2018-08-24T21:58:17.513Z,4.4
2018-08-24T22:01:17.502Z,4.6
2018-08-24T22:04:17.460Z,5.1
2018-08-24T22:10:17.743Z,4.5
2018-08-24T22:13:17.637Z,4.2
2018-08-24T22:16:17.687Z,4.6
2018-08-24T22:19:17.894Z,4.3
2018-08-24T22:22:17.923Z,4.2
2018-08-24T22:25:17.789Z,4.3
2018-08-24T22:28:17.487Z,4.3
2018-08-24T22:31:17.763Z,4
2018-08-24T22:34:17.590Z,4.2
2018-08-24T22:40:17.727Z,4.1
2018-08-24T22:43:17.858Z,4.3
2018-08-24T22:46:17.699Z,4.5
2018-08-24T22:49:17.774Z,4.2
2018-08-24T22:52:17.543Z,4.2
2018-08-24T22:55:17.594Z,3.9
2018-08-24T22:58:17.430Z,4
2018-08-24T23:01:17.753Z,4.7
2018-08-24T23:04:17.570Z,3.6
2018-08-24T23:10:17.707Z,4.1
2018-08-24T23:13:17.630Z,4
2018-08-24T23:16:17.697Z,3.7
2018-08-24T23:19:17.605Z,4
2018-08-24T23:22:17.785Z,3.8
2018-08-24T23:25:17.585Z,3.8
2018-08-24T23:28:17.638Z,4.1
2018-08-24T23:31:17.985Z,4.2
2018-08-24T23:34:17.513Z,3.9
2018-08-24T23:40:17.659Z,4
2018-08-24T23:43:17.450Z,4
2018-08-24T23:46:17.762Z,3.9
2018-08-24T23:49:17.552Z,3.9
2018-08-24T23:52:17.546Z,3.7
2018-08-24T23:55:17.883Z,4
2018-08-24T23:58:17.663Z,4
